createdAt,value
2019-05-29T00:00:12.928Z,12.20
2019-05-29T00:02:42.024Z,12.20
2019-05-29T00:05:12.175Z,12.23
2019-05-29T00:07:41.316Z,12.19
2019-05-29T00:10:12.264Z,12.13
2019-05-29T00:12:41.136Z,12.14
2019-05-29T00:15:10.835Z,12.14
2019-05-29T00:17:39.665Z,12.09
2019-05-29T00:20:10.482Z,12.05
2019-05-29T00:22:39.363Z,12.06
2019-05-29T00:25:08.940Z,12.02
2019-05-29T00:27:37.935Z,12.09
2019-05-29T00:30:07.366Z,12.12
2019-05-29T00:32:36.866Z,12.06
2019-05-29T00:35:06.446Z,12.09
2019-05-29T00:37:35.197Z,12.01
2019-05-29T00:40:04.849Z,11.99
2019-05-29T00:42:33.863Z,11.89
2019-05-29T00:45:02.929Z,11.84
2019-05-29T00:47:32.539Z,11.92
2019-05-29T00:50:01.324Z,11.95
2019-05-29T00:52:30.225Z,11.83
2019-05-29T00:54:59.003Z,11.78
2019-05-29T00:57:28.078Z,11.80
2019-05-29T00:59:56.996Z,11.93
2019-05-29T01:02:25.870Z,11.94
2019-05-29T01:04:54.670Z,11.97
2019-05-29T01:07:23.493Z,11.96
2019-05-29T01:09:52.475Z,12.05
2019-05-29T01:12:21.403Z,12.07
2019-05-29T01:14:50.816Z,12.01
2019-05-29T01:17:20.121Z,12.00
2019-05-29T01:19:49.005Z,12.06
2019-05-29T01:22:18.705Z,11.96
2019-05-29T01:24:47.791Z,12.06
2019-05-29T01:27:16.857Z,12.08
2019-05-29T01:29:45.663Z,12.11
2019-05-29T01:32:15.489Z,12.18
2019-05-29T01:34:44.414Z,12.32
2019-05-29T01:37:14.007Z,12.25
2019-05-29T01:39:42.913Z,12.20
2019-05-29T01:42:11.830Z,12.13
2019-05-29T01:44:40.647Z,12.17
2019-05-29T01:47:09.637Z,12.21
2019-05-29T01:49:38.584Z,12.26
2019-05-29T01:52:07.395Z,12.19
2019-05-29T01:54:36.292Z,12.20
2019-05-29T01:57:05.229Z,12.03
2019-05-29T01:59:34.238Z,12.06
2019-05-29T02:02:03.042Z,12.11
2019-05-29T02:04:31.814Z,12.03
2019-05-29T02:07:00.698Z,12.08
2019-05-29T02:09:29.610Z,12.07
2019-05-29T02:11:58.548Z,12.10
2019-05-29T02:14:27.332Z,12.22
2019-05-29T02:16:56.337Z,12.22
2019-05-29T02:19:25.345Z,12.14
2019-05-29T02:21:54.256Z,12.15
2019-05-29T02:24:23.328Z,12.19
2019-05-29T02:26:52.261Z,12.08
2019-05-29T02:29:21.269Z,12.17
2019-05-29T02:31:50.281Z,12.10
2019-05-29T02:34:20.014Z,12.08
2019-05-29T02:36:49.233Z,11.99
2019-05-29T02:39:18.759Z,12.10
2019-05-29T02:41:48.283Z,12.09
2019-05-29T02:44:17.171Z,12.10
2019-05-29T02:46:46.411Z,12.02
2019-05-29T02:49:16.699Z,12.15
2019-05-29T02:51:45.668Z,12.11
2019-05-29T02:54:14.650Z,12.02
2019-05-29T02:56:43.719Z,12.07
2019-05-29T02:59:12.654Z,12.01
2019-05-29T03:01:41.570Z,12.14
2019-05-29T03:04:10.458Z,12.18
2019-05-29T03:06:39.469Z,12.22
2019-05-29T03:09:08.481Z,12.13
2019-05-29T03:11:37.572Z,12.12
2019-05-29T03:14:06.543Z,12.03
2019-05-29T03:16:35.474Z,12.01
2019-05-29T03:19:04.744Z,11.97
2019-05-29T03:21:34.764Z,12.00
2019-05-29T03:24:03.793Z,11.98
2019-05-29T03:26:34.786Z,11.84
2019-05-29T03:29:03.327Z,11.90
2019-05-29T03:31:41.888Z,11.89
2019-05-29T03:34:02.868Z,11.90
2019-05-29T03:36:38.435Z,11.97
2019-05-29T03:39:02.328Z,11.97
2019-05-29T03:41:32.694Z,11.87
2019-05-29T03:44:02.218Z,11.86
2019-05-29T03:46:39.989Z,11.86
2019-05-29T03:49:01.798Z,11.87
2019-05-29T03:51:32.483Z,11.81
2019-05-29T03:54:01.462Z,11.85
2019-05-29T03:56:30.716Z,11.80
2019-05-29T03:59:00.389Z,11.75
2019-05-29T04:01:31.286Z,11.78
2019-05-29T04:03:59.983Z,11.74
2019-05-29T04:06:29.183Z,11.75
2019-05-29T04:08:58.032Z,11.82
2019-05-29T04:11:27.441Z,11.74
2019-05-29T04:13:56.580Z,11.69
2019-05-29T04:16:27.622Z,11.71
2019-05-29T04:18:57.750Z,11.83
2019-05-29T04:21:27.921Z,11.85
2019-05-29T04:24:00.297Z,11.96
2019-05-29T04:26:32.326Z,11.94
2019-05-29T04:29:01.695Z,12.02
2019-05-29T04:31:32.366Z,11.84
2019-05-29T04:34:01.347Z,11.98
2019-05-29T04:36:30.704Z,11.91
2019-05-29T04:39:01.031Z,11.94
2019-05-29T04:41:30.840Z,12.11
2019-05-29T04:43:59.812Z,12.25
2019-05-29T04:46:30.025Z,12.19
2019-05-29T04:48:59.438Z,12.23
2019-05-29T04:51:29.120Z,12.16
2019-05-29T04:53:58.168Z,12.17
2019-05-29T04:56:26.929Z,12.25
2019-05-29T04:58:55.948Z,12.45
2019-05-29T05:01:24.845Z,12.39
2019-05-29T05:03:53.734Z,12.52
2019-05-29T05:06:22.597Z,12.64
2019-05-29T05:08:51.459Z,12.77
2019-05-29T05:11:20.481Z,12.91
2019-05-29T05:13:49.469Z,12.99
2019-05-29T05:16:18.378Z,12.99
2019-05-29T05:18:47.269Z,12.96
2019-05-29T05:21:16.160Z,13.04
2019-05-29T05:23:45.026Z,13.22
2019-05-29T05:26:13.964Z,13.35
2019-05-29T05:28:45.665Z,13.41
2019-05-29T05:31:13.533Z,13.47
2019-05-29T05:33:42.505Z,13.43
2019-05-29T05:36:11.556Z,13.72
2019-05-29T05:38:41.099Z,13.86
2019-05-29T05:41:10.166Z,13.50
2019-05-29T05:43:39.086Z,13.41
2019-05-29T05:46:07.943Z,13.53
2019-05-29T05:48:37.133Z,13.62
2019-05-29T05:51:06.266Z,13.76
2019-05-29T05:53:35.441Z,14.04
2019-05-29T05:56:04.526Z,13.86
2019-05-29T05:58:33.772Z,13.70
2019-05-29T06:01:02.605Z,13.87
2019-05-29T06:03:31.876Z,13.98
2019-05-29T06:06:00.849Z,14.01
2019-05-29T06:08:29.795Z,14.05
2019-05-29T06:10:58.654Z,14.14
2019-05-29T06:13:27.484Z,14.00
2019-05-29T06:15:58.803Z,14.45
2019-05-29T06:18:28.023Z,14.88
2019-05-29T06:20:56.954Z,15.74
2019-05-29T06:23:25.714Z,15.67
2019-05-29T06:25:54.607Z,15.44
2019-05-29T06:28:23.894Z,15.45
2019-05-29T06:30:52.899Z,15.63
2019-05-29T06:33:21.771Z,15.59
2019-05-29T06:35:51.385Z,15.30
2019-05-29T06:38:20.346Z,15.41
2019-05-29T06:40:49.370Z,15.96
2019-05-29T06:43:23.655Z,16.19
2019-05-29T06:45:54.733Z,16.74
2019-05-29T06:48:41.483Z,16.41
2019-05-29T06:50:57.447Z,15.95
2019-05-29T06:53:27.009Z,15.20
2019-05-29T06:55:57.588Z,15.45
2019-05-29T06:58:26.760Z,15.86
2019-05-29T07:00:55.740Z,16.14
2019-05-29T07:03:24.717Z,16.35
2019-05-29T07:05:53.704Z,16.22
2019-05-29T07:08:37.581Z,15.82
2019-05-29T07:10:53.163Z,15.74
2019-05-29T07:13:22.158Z,15.59
2019-05-29T07:15:51.121Z,15.93
2019-05-29T07:18:20.115Z,16.38
2019-05-29T07:20:49.100Z,16.68
2019-05-29T07:23:18.017Z,17.56
2019-05-29T07:25:47.436Z,18.43
2019-05-29T07:28:16.456Z,18.72
2019-05-29T07:30:53.865Z,19.30
2019-05-29T07:33:16.154Z,19.90
2019-05-29T07:35:45.682Z,20.03
2019-05-29T07:38:14.849Z,19.72
2019-05-29T07:40:47.148Z,19.65
2019-05-29T07:43:14.189Z,20.06
2019-05-29T07:45:44.051Z,21.07
2019-05-29T07:48:13.097Z,21.44
2019-05-29T07:50:42.246Z,20.00
2019-05-29T07:53:11.142Z,20.27
2019-05-29T07:55:40.428Z,20.68
2019-05-29T07:58:09.264Z,21.25
2019-05-29T08:01:02.693Z,21.64
2019-05-29T08:03:09.756Z,22.70
2019-05-29T08:05:39.232Z,21.82
2019-05-29T08:08:08.296Z,21.02
2019-05-29T08:10:37.281Z,19.98
2019-05-29T08:13:06.286Z,20.41
2019-05-29T08:15:49.197Z,20.95
2019-05-29T08:18:06.085Z,20.72
2019-05-29T08:20:35.110Z,21.09
2019-05-29T08:23:04.144Z,21.53
2019-05-29T08:25:33.143Z,21.54
2019-05-29T08:28:01.943Z,21.37
2019-05-29T08:30:31.066Z,21.57
2019-05-29T08:33:00.031Z,20.55
2019-05-29T08:35:29.081Z,19.95
2019-05-29T08:37:58.059Z,19.37
2019-05-29T08:40:27.011Z,18.96
2019-05-29T08:42:56.002Z,18.00
2019-05-29T08:45:25.011Z,17.69
2019-05-29T08:47:54.066Z,17.38
2019-05-29T08:50:22.996Z,17.82
2019-05-29T08:52:52.317Z,18.24
2019-05-29T08:55:21.455Z,18.67
2019-05-29T08:57:50.505Z,18.43
2019-05-29T09:00:20.827Z,18.72
2019-05-29T09:02:51.119Z,18.55
2019-05-29T09:05:20.214Z,18.79
2019-05-29T09:07:50.061Z,19.17
2019-05-29T09:10:19.999Z,19.06
2019-05-29T09:12:56.778Z,19.03
2019-05-29T09:15:21.438Z,19.00
2019-05-29T09:17:50.902Z,19.09
2019-05-29T09:20:34.102Z,19.28
2019-05-29T09:22:50.412Z,18.72
2019-05-29T09:25:21.067Z,18.92
2019-05-29T09:27:50.085Z,19.31
2019-05-29T09:30:20.117Z,19.82
2019-05-29T09:32:52.038Z,20.10
2019-05-29T09:35:21.619Z,20.41
2019-05-29T09:37:50.737Z,20.10
2019-05-29T09:40:21.042Z,19.68
2019-05-29T09:42:50.191Z,19.30
2019-05-29T09:45:19.576Z,19.46
2019-05-29T09:47:49.107Z,19.81
2019-05-29T09:50:18.800Z,19.88
2019-05-29T09:52:49.036Z,19.61
2019-05-29T09:55:19.385Z,19.82
2019-05-29T09:57:48.363Z,19.97
2019-05-29T10:00:17.912Z,19.89
2019-05-29T10:02:46.927Z,20.31
2019-05-29T10:05:16.065Z,20.42
2019-05-29T10:07:44.957Z,20.22
2019-05-29T10:10:14.248Z,20.49
2019-05-29T10:12:43.294Z,20.61
2019-05-29T10:15:14.137Z,20.87
2019-05-29T10:17:43.199Z,20.81
2019-05-29T10:20:13.713Z,20.60
2019-05-29T10:22:42.622Z,20.52
2019-05-29T10:25:12.245Z,20.67
2019-05-29T10:27:41.085Z,20.31
2019-05-29T10:30:10.976Z,20.34
2019-05-29T10:32:39.951Z,19.97
2019-05-29T10:35:09.669Z,19.82
2019-05-29T10:37:38.562Z,19.84
2019-05-29T10:40:08.948Z,19.30
2019-05-29T10:42:38.215Z,19.45
2019-05-29T10:45:08.212Z,19.80
2019-05-29T10:47:37.178Z,19.42
2019-05-29T10:50:06.778Z,19.21
2019-05-29T10:52:35.650Z,19.23
2019-05-29T10:55:05.016Z,19.33
2019-05-29T10:57:33.979Z,19.55
2019-05-29T11:00:03.042Z,19.30
2019-05-29T11:02:31.990Z,19.56
2019-05-29T11:05:01.104Z,19.86
2019-05-29T11:07:29.970Z,20.02
2019-05-29T11:09:58.785Z,19.53
2019-05-29T11:12:28.006Z,19.39
2019-05-29T11:14:57.137Z,19.51
2019-05-29T11:17:26.210Z,19.79
2019-05-29T11:19:58.282Z,20.09
2019-05-29T11:22:27.466Z,20.01
2019-05-29T11:24:56.729Z,19.85
2019-05-29T11:27:26.368Z,19.49
2019-05-29T11:29:56.940Z,19.61
2019-05-29T11:32:26.036Z,19.70
2019-05-29T11:34:55.556Z,20.00
2019-05-29T11:37:24.560Z,19.65
2019-05-29T11:39:54.882Z,19.83
2019-05-29T11:42:27.284Z,19.93
2019-05-29T11:44:55.267Z,20.43
2019-05-29T11:47:24.259Z,20.77
2019-05-29T11:49:53.257Z,21.18
2019-05-29T11:52:25.015Z,21.63
2019-05-29T11:54:56.542Z,21.80
2019-05-29T11:57:23.613Z,20.93
2019-05-29T11:59:53.737Z,21.55
2019-05-29T12:02:22.991Z,21.85
2019-05-29T12:04:53.011Z,22.21
2019-05-29T12:07:21.971Z,21.98
2019-05-29T12:09:51.418Z,21.93
2019-05-29T12:12:20.366Z,21.75
2019-05-29T12:15:00.663Z,21.12
2019-05-29T12:17:19.966Z,21.33
2019-05-29T12:19:48.889Z,21.17
2019-05-29T12:22:17.968Z,21.17
2019-05-29T12:24:46.850Z,21.53
2019-05-29T12:27:15.865Z,21.87
2019-05-29T12:29:44.770Z,20.90
2019-05-29T12:32:13.808Z,21.02
2019-05-29T12:34:53.120Z,20.47
2019-05-29T12:37:15.064Z,20.37
2019-05-29T12:39:43.893Z,20.50
2019-05-29T12:42:12.771Z,20.77
2019-05-29T12:44:41.656Z,20.94
2019-05-29T12:47:10.602Z,20.79
2019-05-29T12:49:39.450Z,20.58
2019-05-29T12:52:09.405Z,21.00
2019-05-29T12:54:38.916Z,21.26
2019-05-29T12:57:08.043Z,21.16
2019-05-29T12:59:39.327Z,21.21
2019-05-29T13:02:08.408Z,21.07
2019-05-29T13:05:06.357Z,20.89
2019-05-29T13:07:08.200Z,21.25
2019-05-29T13:09:37.225Z,21.14
2019-05-29T13:12:06.311Z,21.17
2019-05-29T13:14:35.277Z,21.56
2019-05-29T13:17:05.175Z,22.03
2019-05-29T13:19:34.353Z,22.14
2019-05-29T13:22:03.596Z,21.51
2019-05-29T13:24:32.735Z,22.10
2019-05-29T13:27:01.871Z,22.24
2019-05-29T13:29:30.974Z,22.82
2019-05-29T13:32:01.994Z,23.40
2019-05-29T13:34:30.561Z,23.48
2019-05-29T13:37:03.432Z,23.38
2019-05-29T13:39:30.128Z,23.01
2019-05-29T13:42:04.355Z,23.63
2019-05-29T13:44:29.531Z,24.45
2019-05-29T13:46:59.892Z,25.45
2019-05-29T13:49:28.772Z,26.57
2019-05-29T13:51:59.064Z,26.10
2019-05-29T13:54:28.099Z,26.71
2019-05-29T13:56:58.976Z,26.02
2019-05-29T13:59:27.705Z,23.85
2019-05-29T14:01:58.277Z,22.79
2019-05-29T14:04:27.483Z,21.20
2019-05-29T14:06:56.394Z,20.83
2019-05-29T14:09:25.374Z,20.21
2019-05-29T14:11:54.316Z,20.65
2019-05-29T14:14:23.207Z,20.91
2019-05-29T14:16:52.111Z,20.81
2019-05-29T14:19:21.101Z,20.52
2019-05-29T14:21:50.188Z,20.86
2019-05-29T14:24:28.365Z,21.63
2019-05-29T14:26:49.901Z,23.03
2019-05-29T14:29:18.699Z,24.60
2019-05-29T14:31:47.652Z,24.94
2019-05-29T14:34:16.648Z,25.58
2019-05-29T14:36:45.551Z,25.15
2019-05-29T14:39:14.507Z,25.95
2019-05-29T14:41:43.488Z,26.18
2019-05-29T14:44:12.307Z,25.94
2019-05-29T14:46:41.168Z,25.96
2019-05-29T14:49:10.894Z,25.83
2019-05-29T14:51:40.324Z,26.37
2019-05-29T14:54:10.878Z,25.56
2019-05-29T14:56:40.137Z,24.46
2019-05-29T14:59:09.450Z,24.62
2019-05-29T15:01:38.346Z,24.54
2019-05-29T15:04:07.646Z,24.43
2019-05-29T15:06:36.600Z,24.28
2019-05-29T15:09:07.684Z,24.43
2019-05-29T15:11:36.615Z,25.23
2019-05-29T15:14:06.154Z,24.45
2019-05-29T15:16:35.009Z,23.16
2019-05-29T15:19:05.041Z,23.13
2019-05-29T15:21:34.735Z,22.78
2019-05-29T15:24:03.742Z,22.63
2019-05-29T15:26:32.650Z,22.53
2019-05-29T15:29:01.703Z,21.62
2019-05-29T15:31:30.520Z,21.53
2019-05-29T15:33:59.414Z,21.58
2019-05-29T15:36:28.367Z,21.67
2019-05-29T15:38:57.288Z,21.80
2019-05-29T15:41:26.249Z,21.59
2019-05-29T15:43:55.069Z,21.74
2019-05-29T15:46:23.957Z,21.92
2019-05-29T15:48:53.024Z,22.01
2019-05-29T15:51:22.056Z,21.96
2019-05-29T15:53:51.072Z,21.78
2019-05-29T15:56:27.453Z,21.41
2019-05-29T15:58:50.907Z,21.38
2019-05-29T16:01:19.821Z,21.30
2019-05-29T16:03:48.860Z,21.22
2019-05-29T16:06:18.068Z,20.94
2019-05-29T16:08:47.028Z,21.21
2019-05-29T16:11:16.773Z,21.48
2019-05-29T16:13:45.967Z,22.41
2019-05-29T16:16:15.347Z,22.36
2019-05-29T16:18:44.349Z,22.36
2019-05-29T16:21:14.597Z,22.95
2019-05-29T16:23:43.684Z,24.35
2019-05-29T16:26:15.136Z,25.44
2019-05-29T16:28:44.103Z,25.77
2019-05-29T16:31:14.748Z,26.16
2019-05-29T16:33:44.027Z,25.99
2019-05-29T16:36:14.468Z,26.63
2019-05-29T16:38:43.335Z,26.89
2019-05-29T16:41:13.671Z,26.31
2019-05-29T16:43:42.859Z,25.42
2019-05-29T16:46:15.505Z,24.14
2019-05-29T16:48:42.532Z,23.54
2019-05-29T16:51:12.563Z,24.56
2019-05-29T16:53:41.564Z,25.80
2019-05-29T16:56:10.607Z,27.16
2019-05-29T16:58:41.164Z,28.44
2019-05-29T17:01:10.193Z,27.88
2019-05-29T17:03:39.237Z,28.57
2019-05-29T17:06:08.282Z,29.16
2019-05-29T17:08:37.265Z,29.04
2019-05-29T17:11:08.097Z,28.87
2019-05-29T17:13:37.022Z,27.54
2019-05-29T17:16:06.027Z,26.77
2019-05-29T17:18:34.956Z,25.62
2019-05-29T17:21:04.073Z,25.18
2019-05-29T17:23:33.116Z,25.55
2019-05-29T17:26:10.512Z,26.62
2019-05-29T17:28:32.917Z,26.86
2019-05-29T17:31:02.607Z,27.24
2019-05-29T17:33:31.704Z,27.74
2019-05-29T17:36:00.657Z,27.75
2019-05-29T17:38:29.740Z,26.98
2019-05-29T17:40:58.757Z,26.54
2019-05-29T17:43:28.707Z,26.02
2019-05-29T17:45:57.932Z,24.82
2019-05-29T17:48:26.838Z,24.28
2019-05-29T17:50:56.274Z,23.74
2019-05-29T17:53:26.215Z,23.76
2019-05-29T17:55:55.187Z,24.42
2019-05-29T17:58:25.013Z,24.72
2019-05-29T18:00:55.031Z,25.14
2019-05-29T18:03:24.254Z,25.55
2019-05-29T18:05:53.389Z,25.30
2019-05-29T18:08:22.908Z,25.64
2019-05-29T18:10:52.102Z,24.94
2019-05-29T18:13:21.536Z,25.05
2019-05-29T18:15:50.603Z,25.01
2019-05-29T18:18:19.551Z,24.92
2019-05-29T18:20:48.954Z,24.64
2019-05-29T18:23:19.820Z,24.44
2019-05-29T18:25:49.171Z,24.44
2019-05-29T18:28:18.086Z,24.24
2019-05-29T18:30:47.118Z,24.43
2019-05-29T18:33:16.186Z,24.55
2019-05-29T18:35:45.237Z,24.72
2019-05-29T18:38:14.420Z,24.55
2019-05-29T18:40:43.407Z,24.39
2019-05-29T18:43:13.464Z,24.24
2019-05-29T18:45:42.472Z,23.90
2019-05-29T18:48:11.981Z,24.05
2019-05-29T18:50:44.220Z,23.67
2019-05-29T18:53:11.953Z,22.91
2019-05-29T18:55:40.831Z,22.57
2019-05-29T18:58:09.777Z,22.03
2019-05-29T19:00:38.745Z,21.81
2019-05-29T19:03:07.750Z,21.24
2019-05-29T19:05:36.739Z,20.77
2019-05-29T19:08:05.904Z,20.53
2019-05-29T19:10:34.822Z,20.22
2019-05-29T19:13:03.891Z,19.91
2019-05-29T19:15:32.904Z,19.61
2019-05-29T19:18:02.115Z,19.39
2019-05-29T19:20:32.570Z,19.05
2019-05-29T19:23:01.671Z,18.85
2019-05-29T19:25:30.894Z,18.67
2019-05-29T19:27:59.907Z,18.36
2019-05-29T19:30:29.415Z,18.19
2019-05-29T19:32:58.544Z,18.03
2019-05-29T19:35:27.707Z,17.93
2019-05-29T19:37:56.640Z,17.79
2019-05-29T19:40:26.038Z,17.53
2019-05-29T19:42:56.239Z,17.53
2019-05-29T19:45:26.466Z,17.31
2019-05-29T19:47:55.476Z,17.12
2019-05-29T19:50:24.713Z,17.16
2019-05-29T19:52:53.624Z,17.03
2019-05-29T19:55:22.680Z,16.95
2019-05-29T19:57:56.145Z,16.83
2019-05-29T20:00:23.319Z,16.81
2019-05-29T20:02:52.635Z,16.78
2019-05-29T20:05:21.590Z,16.71
2019-05-29T20:07:50.667Z,16.70
2019-05-29T20:10:21.351Z,16.64
2019-05-29T20:12:52.082Z,16.57
2019-05-29T20:15:21.376Z,16.57
2019-05-29T20:17:50.482Z,16.47
2019-05-29T20:20:19.676Z,16.38
2019-05-29T20:22:48.667Z,16.35
2019-05-29T20:25:18.137Z,16.20
2019-05-29T20:27:47.273Z,16.19
2019-05-29T20:30:27.578Z,16.19
2019-05-29T20:32:56.876Z,16.24
2019-05-29T20:35:25.959Z,16.28
2019-05-29T20:37:55.033Z,16.14
2019-05-29T20:40:24.183Z,16.00
2019-05-29T20:42:55.709Z,15.97
2019-05-29T20:45:25.162Z,15.90
2019-05-29T20:47:54.243Z,15.72
2019-05-29T20:50:23.390Z,15.58
2019-05-29T20:52:52.214Z,15.55
2019-05-29T20:55:21.188Z,15.43
2019-05-29T20:57:49.970Z,15.29
2019-05-29T21:00:19.419Z,15.08
2019-05-29T21:02:48.274Z,15.09
2019-05-29T21:05:17.242Z,14.99
2019-05-29T21:07:46.503Z,14.93
2019-05-29T21:10:16.758Z,14.88
2019-05-29T21:12:47.597Z,14.82
2019-05-29T21:15:16.627Z,14.73
2019-05-29T21:17:45.990Z,14.67
2019-05-29T21:20:16.143Z,14.53
2019-05-29T21:22:45.098Z,14.44
2019-05-29T21:25:18.993Z,14.42
2019-05-29T21:27:48.759Z,14.35
2019-05-29T21:30:18.595Z,14.37
2019-05-29T21:32:47.775Z,14.26
2019-05-29T21:35:16.991Z,14.18
2019-05-29T21:37:46.647Z,14.08
2019-05-29T21:40:15.928Z,14.03
2019-05-29T21:42:44.951Z,13.93
2019-05-29T21:45:13.842Z,13.99
2019-05-29T21:47:43.546Z,13.88
2019-05-29T21:50:13.326Z,13.93
2019-05-29T21:52:43.631Z,13.82
2019-05-29T21:55:13.147Z,13.77
2019-05-29T21:57:45.064Z,13.63
2019-05-29T22:00:15.814Z,13.56
2019-05-29T22:02:46.426Z,13.52
2019-05-29T22:05:15.827Z,13.25
2019-05-29T22:07:45.085Z,13.49
2019-05-29T22:10:14.696Z,13.47
2019-05-29T22:12:43.587Z,13.45
2019-05-29T22:15:12.937Z,13.28
2019-05-29T22:17:41.872Z,13.17
2019-05-29T22:20:11.221Z,13.08
2019-05-29T22:22:40.349Z,12.94
2019-05-29T22:25:10.123Z,12.98
2019-05-29T22:27:38.972Z,13.11
2019-05-29T22:30:09.726Z,13.31
2019-05-29T22:32:38.596Z,13.31
2019-05-29T22:35:07.993Z,13.24
2019-05-29T22:37:37.255Z,13.28
2019-05-29T22:40:06.531Z,13.27
2019-05-29T22:42:35.774Z,13.32
2019-05-29T22:45:05.088Z,13.27
2019-05-29T22:47:34.051Z,13.32
2019-05-29T22:50:03.238Z,13.39
2019-05-29T22:52:32.239Z,13.59
2019-05-29T22:55:02.355Z,13.61
2019-05-29T22:57:31.364Z,13.49
2019-05-29T23:00:00.264Z,13.41
2019-05-29T23:02:29.288Z,13.36
2019-05-29T23:04:58.603Z,13.50
2019-05-29T23:07:27.688Z,13.58
2019-05-29T23:09:56.689Z,13.52
2019-05-29T23:12:25.591Z,13.58
2019-05-29T23:14:54.615Z,13.48
2019-05-29T23:17:23.615Z,13.49
2019-05-29T23:19:52.531Z,13.53
2019-05-29T23:22:24.491Z,13.64
2019-05-29T23:24:52.619Z,13.65
2019-05-29T23:27:21.806Z,13.64
2019-05-29T23:29:50.696Z,13.65
2019-05-29T23:32:19.722Z,13.63
2019-05-29T23:34:48.730Z,13.54
2019-05-29T23:37:17.780Z,13.55
2019-05-29T23:39:50.655Z,13.57
2019-05-29T23:42:19.602Z,13.49
2019-05-29T23:44:51.712Z,13.52
2019-05-29T23:47:19.202Z,13.40
2019-05-29T23:49:48.063Z,13.47
2019-05-29T23:52:16.949Z,13.43
2019-05-29T23:54:45.899Z,13.41
2019-05-29T23:57:15.042Z,13.36
2019-05-29T23:59:44.027Z,13.35
